Time;durP1;ratioP1;P1;durP2;ratioP2;P2;SDS_P1;SDS_P2;PMS_P1;PMS_P2;Temp;Humidity;BMP_temperature;BMP_pressure;BME280_temperature;BME280_humidity;BME280_pressure;Samples;Min_cycle;Max_cycle;Signal;HPM_P1;HPM_P2
2023/06/15 00:00:41;;;;;;;7.93;4.30;;;;;;;14.11;100.00;100268.63;5587219;31;33636;-68
2023/06/15 00:03:51;;;;;;;8.40;4.70;;;;;;;14.06;100.00;100263.03;5587754;31;34450;-68
2023/06/15 00:06:58;;;;;;;7.70;4.20;;;;;;;14.05;100.00;100264.03;5587785;31;33864;-68
2023/06/15 00:10:05;;;;;;;7.80;4.50;;;;;;;14.00;100.00;100266.47;5587808;31;34363;-68
2023/06/15 00:13:12;;;;;;;7.03;4.03;;;;;;;13.93;100.00;100269.09;5587760;31;33869;-67
2023/06/15 00:16:22;;;;;;;6.50;4.15;;;;;;;13.93;100.00;100268.25;5583943;31;34565;-67
2023/06/15 00:19:29;;;;;;;8.23;4.20;;;;;;;13.86;100.00;100257.53;5587642;31;34004;-68
2023/06/15 00:22:38;;;;;;;7.40;4.40;;;;;;;13.87;100.00;100264.53;5587810;31;34293;-68
2023/06/15 00:25:43;;;;;;;6.60;4.43;;;;;;;13.80;100.00;100260.97;5587651;31;34222;-67
2023/06/15 00:28:52;;;;;;;6.35;4.25;;;;;;;13.73;100.00;100265.41;5587691;31;33622;-68
2023/06/15 00:32:00;;;;;;;8.38;4.28;;;;;;;13.63;100.00;100264.91;5587657;31;34583;-67
2023/06/15 00:35:07;;;;;;;8.05;4.80;;;;;;;13.55;100.00;100267.72;5587674;31;33901;-67
2023/06/15 00:38:15;;;;;;;6.82;4.50;;;;;;;13.51;100.00;100262.94;5584097;31;33815;-68
2023/06/15 00:41:21;;;;;;;7.53;5.05;;;;;;;13.50;100.00;100262.12;5587567;31;34296;-68
2023/06/15 00:44:28;;;;;;;8.98;5.00;;;;;;;13.49;100.00;100253.28;5587441;31;33996;-68
2023/06/15 00:47:38;;;;;;;10.70;4.87;;;;;;;13.44;100.00;100261.03;5587764;31;33753;-67
2023/06/15 00:50:45;;;;;;;7.75;4.90;;;;;;;13.39;100.00;100254.63;5586315;31;33894;-67
2023/06/15 00:53:52;;;;;;;8.45;4.47;;;;;;;13.42;100.00;100259.56;5587418;31;34486;-68
2023/06/15 00:56:58;;;;;;;6.97;4.70;;;;;;;13.41;100.00;100264.06;5587448;31;33580;-68
2023/06/15 01:00:09;;;;;;;8.77;4.95;;;;;;;13.39;100.00;100266.09;5586487;31;33904;-68
2023/06/15 01:03:20;;;;;;;9.02;5.00;;;;;;;13.39;100.00;100265.28;5587338;31;33738;-67
2023/06/15 01:06:31;;;;;;;10.30;4.90;;;;;;;13.35;100.00;100259.50;5586514;31;33814;-68
2023/06/15 01:09:41;;;;;;;8.32;4.75;;;;;;;13.36;100.00;100257.66;5587303;31;34531;-68
2023/06/15 01:12:54;;;;;;;8.73;4.87;;;;;;;13.38;100.00;100252.97;5587356;31;34419;-68
2023/06/15 01:16:06;;;;;;;8.90;5.12;;;;;;;13.37;100.00;100257.47;5586547;31;33688;-67
2023/06/15 01:19:32;;;;;;;10.52;4.90;;;;;;;13.46;100.00;100252.81;5586432;31;34270;-68
2023/06/15 01:22:59;;;;;;;9.48;5.00;;;;;;;13.36;100.00;100247.81;5586158;31;34911;-68
2023/06/15 01:26:08;;;;;;;9.80;4.97;;;;;;;13.36;100.00;100247.00;5587205;31;33868;-68
2023/06/15 01:29:19;;;;;;;14.25;4.80;;;;;;;13.32;100.00;100243.03;5587168;31;34546;-68
2023/06/15 01:32:24;;;;;;;8.60;4.82;;;;;;;13.26;100.00;100234.00;5587239;31;33999;-68
2023/06/15 01:35:32;;;;;;;6.45;4.70;;;;;;;13.27;100.00;100234.78;5587123;31;33806;-68
2023/06/15 01:38:40;;;;;;;7.35;4.80;;;;;;;13.21;100.00;100235.56;5587141;31;33509;-68
2023/06/15 01:41:49;;;;;;;6.75;4.80;;;;;;;13.22;100.00;100237.19;5587066;31;34002;-68
2023/06/15 01:44:55;;;;;;;7.80;4.97;;;;;;;13.28;100.00;100241.78;5587009;31;33886;-68
2023/06/15 01:48:03;;;;;;;7.28;4.72;;;;;;;13.26;100.00;100249.97;5586911;31;35154;-68
2023/06/15 01:51:10;;;;;;;9.10;5.22;;;;;;;13.20;100.00;100240.06;5586829;31;33492;-68
2023/06/15 01:54:20;;;;;;;9.45;4.53;;;;;;;13.18;100.00;100243.91;5586784;31;34028;-68
2023/06/15 01:57:26;;;;;;;6.22;5.00;;;;;;;13.08;100.00;100239.69;5586797;31;33875;-68
2023/06/15 02:00:43;;;;;;;7.93;4.82;;;;;;;13.02;100.00;100247.63;5586454;31;33934;-68
2023/06/15 02:03:53;;;;;;;13.52;5.28;;;;;;;13.03;100.00;100243.91;5586710;31;33672;-68
2023/06/15 02:07:02;;;;;;;9.88;5.00;;;;;;;12.98;100.00;100248.97;5586780;31;34418;-68
2023/06/15 02:10:11;;;;;;;11.73;4.85;;;;;;;12.89;100.00;100250.09;5586668;31;33781;-68
2023/06/15 02:13:17;;;;;;;7.62;4.85;;;;;;;12.82;100.00;100250.03;5586915;31;33972;-68
2023/06/15 02:16:26;;;;;;;7.32;4.93;;;;;;;12.83;100.00;100245.53;5586667;31;34550;-68
2023/06/15 02:19:32;;;;;;;9.07;5.12;;;;;;;12.78;100.00;100242.59;5586914;31;33737;-68
2023/06/15 02:22:39;;;;;;;9.25;5.10;;;;;;;12.78;100.00;100251.38;5585610;31;33655;-68
2023/06/15 02:25:45;;;;;;;8.68;4.80;;;;;;;12.74;100.00;100255.44;5585616;31;34108;-68
2023/06/15 02:28:52;;;;;;;9.25;5.05;;;;;;;12.70;100.00;100251.50;5586522;31;33562;-68
2023/06/15 02:31:58;;;;;;;8.35;4.90;;;;;;;12.66;100.00;100255.53;5586276;31;33867;-68
2023/06/15 02:35:09;;;;;;;7.93;5.10;;;;;;;12.67;100.00;100267.00;5586373;31;33562;-68
2023/06/15 02:38:15;;;;;;;9.23;5.10;;;;;;;12.61;100.00;100269.41;5586241;31;34148;-67
2023/06/15 02:41:22;;;;;;;7.80;5.35;;;;;;;12.62;100.00;100268.41;5586657;31;33859;-68
2023/06/15 02:44:29;;;;;;;7.05;5.10;;;;;;;12.58;100.00;100258.31;5586054;31;34069;-68
2023/06/15 02:47:39;;;;;;;6.32;5.03;;;;;;;12.53;100.00;100264.19;5586171;31;34305;-68
2023/06/15 02:50:47;;;;;;;11.65;5.37;;;;;;;12.51;100.00;100262.69;5585983;31;33660;-68
2023/06/15 02:53:55;;;;;;;8.52;5.37;;;;;;;12.48;100.00;100263.06;5586014;31;33649;-68
2023/06/15 02:57:02;;;;;;;9.73;5.50;;;;;;;12.52;100.00;100259.84;5585956;31;34543;-68
2023/06/15 03:00:13;;;;;;;9.88;5.93;;;;;;;12.59;100.00;100268.75;5585795;31;34616;-68
2023/06/15 03:03:27;;;;;;;7.32;5.05;;;;;;;12.61;100.00;100264.06;5585743;31;33844;-68
2023/06/15 03:06:34;;;;;;;10.25;5.50;;;;;;;12.76;100.00;100258.75;5585878;31;33575;-68
2023/06/15 03:09:46;;;;;;;;;;;;;;;12.75;100.00;100262.41;5586165;31;33855;-68
2023/06/15 03:12:53;;;;;;;9.63;5.28;;;;;;;12.83;100.00;100262.31;5586510;31;33956;-68
2023/06/15 03:16:06;;;;;;;9.07;5.07;;;;;;;12.83;100.00;100264.97;5588393;31;33587;-68
2023/06/15 03:19:16;;;;;;;13.62;5.93;;;;;;;12.81;100.00;100259.03;5587963;31;33640;-68
2023/06/15 03:22:25;;;;;;;8.52;5.45;;;;;;;12.84;100.00;100266.63;5588208;31;35022;-68
2023/06/15 03:25:35;;;;;;;12.15;5.03;;;;;;;12.96;100.00;100267.00;5588134;31;33566;-68
2023/06/15 03:28:39;;;;;;;9.63;5.43;;;;;;;13.05;100.00;100281.84;5587995;31;33965;-68
2023/06/15 03:31:49;;;;;;;9.55;4.95;;;;;;;13.14;100.00;100285.25;5588253;31;33651;-68
2023/06/15 03:34:57;;;;;;;8.13;4.97;;;;;;;13.21;100.00;100281.69;5588192;31;33570;-68
2023/06/15 03:38:02;;;;;;;9.27;4.95;;;;;;;13.30;100.00;100277.87;5588093;31;33849;-68
2023/06/15 03:41:06;;;;;;;12.63;5.20;;;;;;;13.45;100.00;100276.00;5587972;31;34522;-67
2023/06/15 03:44:13;;;;;;;8.05;5.20;;;;;;;13.45;100.00;100276.00;5588042;31;33865;-68
2023/06/15 03:47:21;;;;;;;7.22;4.62;;;;;;;13.44;100.00;100285.00;5588303;31;33942;-68
2023/06/15 03:50:26;;;;;;;10.50;5.00;;;;;;;13.45;100.00;100288.50;5587907;31;34326;-68
2023/06/15 03:53:31;;;;;;;9.27;5.18;;;;;;;13.56;100.00;100287.16;5587154;31;33863;-68
2023/06/15 03:56:40;;;;;;;6.60;5.12;;;;;;;13.58;100.00;100285.97;5587945;31;34118;-68
2023/06/15 03:59:46;;;;;;;10.55;5.20;;;;;;;13.64;100.00;100290.56;5587839;31;33963;-68
2023/06/15 04:02:52;;;;;;;7.62;5.03;;;;;;;13.71;100.00;100282.59;5587929;31;34287;-68
2023/06/15 04:06:01;;;;;;;7.57;4.80;;;;;;;13.81;100.00;100294.59;5587866;31;33696;-68
2023/06/15 04:09:05;;;;;;;9.88;5.12;;;;;;;13.86;100.00;100294.03;5587097;31;33588;-68
2023/06/15 04:12:11;;;;;;;8.10;4.60;;;;;;;14.00;100.00;100295.81;5587932;31;33528;-68
2023/06/15 04:15:18;;;;;;;9.02;5.10;;;;;;;14.08;100.00;100292.19;5587783;31;34265;-68
2023/06/15 04:18:26;;;;;;;8.63;5.10;;;;;;;14.16;100.00;100292.88;5587729;31;33893;-68
2023/06/15 04:21:32;;;;;;;6.87;4.50;;;;;;;14.23;100.00;100301.75;5587670;31;34565;-68
2023/06/15 04:24:38;;;;;;;9.25;4.75;;;;;;;14.30;100.00;100297.28;5587575;31;33937;-67
2023/06/15 04:27:44;;;;;;;8.02;4.57;;;;;;;14.43;100.00;100293.91;5587533;31;33694;-68
2023/06/15 04:31:05;;;;;;;31.70;5.32;;;;;;;14.54;100.00;100292.56;5587308;31;34296;-68
2023/06/15 04:34:11;;;;;;;9.25;4.50;;;;;;;14.60;100.00;100292.62;5587379;31;34537;-68
2023/06/15 04:37:19;;;;;;;13.20;4.85;;;;;;;14.80;100.00;100298.06;5587462;31;33775;-68
2023/06/15 04:40:26;;;;;;;5.60;4.47;;;;;;;14.87;100.00;100301.59;5587132;31;33935;-68
2023/06/15 04:43:35;;;;;;;10.13;3.92;;;;;;;15.00;100.00;100304.34;5587306;31;34499;-68
2023/06/15 04:46:42;;;;;;;10.48;4.37;;;;;;;15.04;100.00;100304.78;5586638;31;33952;-68
2023/06/15 04:49:48;;;;;;;7.60;4.05;;;;;;;14.95;100.00;100312.13;5584285;31;33860;-69
2023/06/15 04:52:53;;;;;;;7.35;4.18;;;;;;;15.13;100.00;100308.91;5585729;31;33736;-68
2023/06/15 04:55:59;;;;;;;10.07;4.68;;;;;;;15.17;100.00;100315.50;5587375;31;33596;-68
2023/06/15 04:59:03;;;;;;;15.38;4.65;;;;;;;15.22;100.00;100313.88;5586965;31;33706;-68
2023/06/15 05:02:10;;;;;;;11.02;4.22;;;;;;;15.36;100.00;100319.28;5586742;31;34832;-67
2023/06/15 05:05:15;;;;;;;9.02;4.22;;;;;;;15.50;100.00;100321.78;5585961;31;33783;-68
2023/06/15 05:08:20;;;;;;;10.90;4.55;;;;;;;15.61;100.00;100318.59;5587243;31;34570;-68
2023/06/15 05:11:25;;;;;;;7.55;4.22;;;;;;;15.54;100.00;100328.41;5586165;31;33883;-68
2023/06/15 05:14:31;;;;;;;9.70;5.20;;;;;;;15.59;100.00;100325.97;5586344;31;34282;-68
2023/06/15 05:17:37;;;;;;;10.02;4.93;;;;;;;15.75;100.00;100337.31;5586696;31;33679;-68
2023/06/15 05:20:45;;;;;;;7.07;4.32;;;;;;;15.85;100.00;100337.75;5585601;31;33797;-68
2023/06/15 05:23:53;;;;;;;12.25;4.87;;;;;;;16.03;100.00;100330.78;5584097;31;35114;-68
2023/06/15 05:26:58;;;;;;;8.00;5.07;;;;;;;16.14;100.00;100336.56;5584445;31;33641;-68
2023/06/15 05:30:02;;;;;;;10.35;4.90;;;;;;;16.41;100.00;100347.06;5578264;31;34780;-68
2023/06/15 05:33:05;;;;;;;6.15;4.47;;;;;;;16.42;100.00;100354.06;5567331;31;33779;-68
2023/06/15 05:36:08;;;;;;;9.35;4.12;;;;;;;16.47;100.00;100351.59;5565419;32;33952;-69
2023/06/15 05:39:32;;;;;;;8.18;4.10;;;;;;;16.48;100.00;100355.09;5569755;31;34932;-68
2023/06/15 05:42:37;;;;;;;9.27;3.97;;;;;;;16.47;100.00;100346.25;5573290;31;33835;-68
2023/06/15 05:45:43;;;;;;;7.18;4.00;;;;;;;16.57;100.00;100340.47;5566354;32;34516;-68
2023/06/15 05:48:53;;;;;;;10.43;4.07;;;;;;;16.94;100.00;100344.38;5566306;32;34744;-68
2023/06/15 05:51:58;;;;;;;10.30;4.32;;;;;;;17.03;100.00;100343.13;5567736;31;33594;-68
2023/06/15 05:55:02;;;;;;;9.98;3.97;;;;;;;17.33;100.00;100354.16;5569060;32;34483;-68
2023/06/15 05:58:05;;;;;;;7.97;4.43;;;;;;;17.29;100.00;100360.94;5565200;32;33983;-68
2023/06/15 06:01:08;;;;;;;10.45;3.95;;;;;;;17.46;100.00;100362.13;5565553;32;33907;-68
2023/06/15 06:04:13;;;;;;;12.13;4.43;;;;;;;17.71;100.00;100360.41;5567514;31;33948;-68
2023/06/15 06:07:16;;;;;;;10.75;4.20;;;;;;;17.87;100.00;100360.91;5575394;31;34385;-68
2023/06/15 06:10:20;;;;;;;10.20;4.25;;;;;;;17.97;100.00;100358.59;5565887;32;34507;-69
2023/06/15 06:13:25;;;;;;;6.85;3.87;;;;;;;18.08;100.00;100368.63;5566535;32;34477;-69
2023/06/15 06:16:28;;;;;;;25.27;5.45;;;;;;;17.89;100.00;100359.69;5580459;31;34591;-68
2023/06/15 06:19:31;;;;;;;13.23;4.18;;;;;;;18.04;100.00;100362.06;5584123;31;33731;-68
2023/06/15 06:22:35;;;;;;;8.57;3.95;;;;;;;18.02;100.00;100362.28;5583923;31;33630;-68
2023/06/15 06:25:39;;;;;;;11.25;4.70;;;;;;;17.88;100.00;100370.62;5583632;31;33703;-68
2023/06/15 06:28:44;;;;;;;16.50;4.80;;;;;;;17.66;100.00;100365.59;5585483;31;34007;-68
2023/06/15 06:31:48;;;;;;;10.02;4.12;;;;;;;18.00;100.00;100364.38;5585724;31;33872;-68
2023/06/15 06:34:52;;;;;;;13.55;4.20;;;;;;;18.21;100.00;100360.47;5585569;31;34724;-68
2023/06/15 06:37:56;;;;;;;10.15;4.40;;;;;;;18.38;100.00;100368.84;5576687;31;33530;-68
2023/06/15 06:41:00;;;;;;;11.25;3.95;;;;;;;18.44;100.00;100366.13;5584783;31;34382;-68
2023/06/15 06:44:04;;;;;;;16.77;4.62;;;;;;;18.57;100.00;100374.09;5585828;31;33928;-68
2023/06/15 06:47:08;;;;;;;12.27;4.93;;;;;;;18.87;100.00;100371.53;5584855;31;33797;-68
2023/06/15 06:50:11;;;;;;;13.30;5.18;;;;;;;18.92;100.00;100369.00;5582929;31;32702;-68
2023/06/15 06:53:15;;;;;;;12.18;4.78;;;;;;;19.20;100.00;100373.03;5587081;31;33822;-68
2023/06/15 06:56:19;;;;;;;14.80;4.75;;;;;;;19.26;100.00;100374.84;5581952;31;35023;-69
2023/06/15 06:59:23;;;;;;;11.90;5.07;;;;;;;19.14;100.00;100368.56;5568546;32;33693;-67
2023/06/15 07:02:45;;;;;;;13.52;4.65;;;;;;;19.56;100.00;100373.03;5568557;32;34836;-68
2023/06/15 07:05:48;;;;;;;11.68;4.45;;;;;;;19.72;96.63;100371.59;5567781;32;34020;-68
2023/06/15 07:08:52;;;;;;;11.45;4.60;;;;;;;20.12;95.13;100369.19;5568157;32;34377;-69
2023/06/15 07:11:57;;;;;;;9.45;5.28;;;;;;;20.22;89.59;100372.13;5568416;32;33719;-69
2023/06/15 07:15:01;;;;;;;13.52;4.72;;;;;;;20.50;84.38;100364.25;5573564;31;33879;-69
2023/06/15 07:18:05;;;;;;;10.38;4.47;;;;;;;20.75;81.05;100359.44;5587489;31;33702;-68
2023/06/15 07:21:10;;;;;;;13.00;4.95;;;;;;;21.01;80.07;100362.72;5587733;31;34424;-68
2023/06/15 07:24:13;;;;;;;13.48;4.25;;;;;;;21.24;78.11;100357.31;5588192;31;34652;-69
2023/06/15 07:27:20;;;;;;;10.90;4.90;;;;;;;21.16;75.47;100358.50;5587907;31;33814;-69
2023/06/15 07:30:23;;;;;;;8.20;4.35;;;;;;;21.45;73.78;100355.84;5587693;31;33938;-69
2023/06/15 07:33:27;;;;;;;5.93;3.97;;;;;;;21.63;73.26;100355.69;5585249;31;34523;-68
2023/06/15 07:36:31;;;;;;;32.03;4.82;;;;;;;21.72;72.58;100359.63;5579796;31;34046;-69
2023/06/15 07:39:35;;;;;;;8.95;4.18;;;;;;;22.05;72.11;100350.81;5570101;31;33677;-69
2023/06/15 07:42:38;;;;;;;8.27;3.80;;;;;;;22.14;67.32;100354.75;5581985;31;33673;-69
2023/06/15 07:45:44;;;;;;;7.95;4.12;;;;;;;22.85;64.58;100353.22;5579908;31;33983;-69
2023/06/15 07:48:49;;;;;;;9.98;3.42;;;;;;;22.86;63.49;100354.84;5587497;31;34668;-69
2023/06/15 07:51:52;;;;;;;11.70;3.50;;;;;;;23.61;63.51;100346.09;5586765;31;34487;-69
2023/06/15 07:55:12;;;;;;;7.87;3.50;;;;;;;23.39;59.86;100348.78;5569799;31;34403;-69
2023/06/15 07:58:17;;;;;;;16.33;3.55;;;;;;;24.11;56.11;100343.06;5578133;31;33644;-69
2023/06/15 08:01:21;;;;;;;9.65;3.35;;;;;;;23.65;59.24;100348.03;5586451;31;33842;-69
2023/06/15 08:04:24;;;;;;;9.70;3.30;;;;;;;24.54;53.24;100342.09;5586693;31;32589;-70
2023/06/15 08:07:29;;;;;;;9.23;3.45;;;;;;;23.40;57.36;100348.53;5587354;31;33968;-69
2023/06/15 08:10:35;;;;;;;12.88;3.30;;;;;;;24.33;54.79;100341.13;5586743;31;34532;-69
2023/06/15 08:13:37;;;;;;;11.98;3.12;;;;;;;25.69;50.23;100348.44;5587093;31;34656;-68
2023/06/15 08:16:41;;;;;;;4.53;2.95;;;;;;;25.32;47.41;100349.34;5586335;31;35003;-68
2023/06/15 08:19:45;;;;;;;4.70;2.97;;;;;;;25.96;47.51;100349.84;5587140;31;34763;-70
2023/06/15 08:22:49;;;;;;;8.27;2.92;;;;;;;26.79;42.22;100344.12;5587238;31;34710;-68
2023/06/15 08:25:53;;;;;;;4.80;3.05;;;;;;;26.93;41.38;100339.78;5586884;31;34727;-69
2023/06/15 08:28:56;;;;;;;6.95;2.60;;;;;;;27.22;40.15;100339.94;5585963;31;33670;-68
2023/06/15 08:32:20;;;;;;;17.73;3.90;;;;;;;27.71;36.67;100337.28;5587117;31;34393;-69
2023/06/15 08:35:24;;;;;;;5.25;2.92;;;;;;;27.45;38.10;100343.97;5587187;31;33967;-69
2023/06/15 08:38:28;;;;;;;7.87;2.70;;;;;;;27.36;35.46;100343.69;5586907;31;35249;-69
2023/06/15 08:41:35;;;;;;;18.35;3.40;;;;;;;27.46;36.14;100338.22;5589206;31;33766;-69
2023/06/15 08:44:40;;;;;;;4.37;2.60;;;;;;;28.13;35.36;100341.41;5586765;31;33944;-70
2023/06/15 08:47:45;;;;;;;7.40;2.50;;;;;;;28.05;34.40;100337.34;5587075;31;33660;-70
2023/06/15 08:50:50;;;;;;;18.15;2.97;;;;;;;27.43;34.25;100338.78;5586830;31;33853;-69
2023/06/15 08:53:55;;;;;;;9.32;2.42;;;;;;;28.14;36.11;100348.47;5586297;31;33826;-69
2023/06/15 08:57:00;;;;;;;8.18;2.80;;;;;;;27.81;35.17;100342.69;5585226;31;33821;-68
2023/06/15 09:00:09;;;;;;;7.97;2.72;;;;;;;28.85;33.31;100340.50;5575810;31;34040;-68
2023/06/15 09:03:17;;;;;;;9.38;2.72;;;;;;;27.20;35.16;100345.69;5567300;32;33877;-68
2023/06/15 09:06:23;;;;;;;4.05;2.50;;;;;;;29.84;31.00;100332.41;5577678;31;33858;-69
2023/06/15 09:09:27;;;;;;;8.88;2.50;;;;;;;29.79;30.37;100328.66;5577452;31;33708;-69
2023/06/15 09:12:32;;;;;;;4.45;2.12;;;;;;;30.92;29.80;100333.91;5581875;31;33939;-69
2023/06/15 09:15:36;;;;;;;11.12;2.70;;;;;;;28.92;30.47;100327.31;5581475;31;34629;-69
2023/06/15 09:18:51;;;;;;;7.07;2.50;;;;;;;29.98;29.85;100334.12;5580392;31;34415;-68
2023/06/15 09:21:55;;;;;;;4.70;2.50;;;;;;;31.54;27.71;100334.28;5572776;31;32313;-69
2023/06/15 09:24:59;;;;;;;22.27;3.42;;;;;;;32.60;26.53;100329.00;5582203;31;34725;-68
2023/06/15 09:28:05;;;;;;;6.07;2.40;;;;;;;33.20;26.87;100323.81;5586714;31;34436;-69
2023/06/15 09:31:09;;;;;;;26.55;3.55;;;;;;;33.61;25.58;100318.69;5586527;31;33728;-69
2023/06/15 09:34:13;;;;;;;5.80;2.35;;;;;;;34.13;24.80;100321.47;5586154;31;33720;-70
2023/06/15 09:37:18;;;;;;;6.28;2.30;;;;;;;33.66;24.81;100311.41;5585466;31;33816;-68
2023/06/15 09:40:26;;;;;;;5.07;2.62;;;;;;;32.49;26.57;100305.66;5589733;31;33602;-71
2023/06/15 09:43:34;;;;;;;11.23;2.60;;;;;;;33.54;25.56;100309.31;5590151;31;33899;-70
2023/06/15 09:46:41;;;;;;;7.45;2.40;;;;;;;33.34;26.22;100304.44;5579762;31;34271;-70
2023/06/15 09:49:48;;;;;;;5.95;2.40;;;;;;;33.13;26.76;100296.75;5553140;32;33854;-69
2023/06/15 09:52:53;;;;;;;11.38;2.55;;;;;;;30.76;29.31;100299.69;5581478;31;34538;-70
2023/06/15 09:55:59;;;;;;;5.72;2.37;;;;;;;29.93;31.25;100295.91;5585772;31;33341;-71
2023/06/15 09:59:02;;;;;;;8.00;2.50;;;;;;;30.09;30.11;100291.03;5566459;32;33386;-72
2023/06/15 10:02:11;;;;;;;9.57;2.58;;;;;;;32.07;27.81;100298.78;5573469;31;34426;-71
2023/06/15 10:05:17;;;;;;;9.60;2.37;;;;;;;32.73;26.77;100292.41;5569604;31;34098;-70
2023/06/15 10:08:25;;;;;;;5.93;2.45;;;;;;;33.70;25.36;100284.91;5569642;31;33949;-71
2023/06/15 10:11:39;;;;;;;7.32;2.58;;;;;;;34.03;25.26;100284.06;5589182;31;33766;-68
2023/06/15 10:14:52;;;;;;;3.72;2.47;;;;;;;32.07;26.79;100285.06;5568756;31;33727;-70
2023/06/15 10:18:01;;;;;;;8.93;2.37;;;;;;;33.54;25.14;100282.62;5586398;31;33990;-71
2023/06/15 10:21:11;;;;;;;5.00;2.42;;;;;;;33.66;25.66;100283.91;5570446;31;34348;-68
2023/06/15 10:24:19;;;;;;;6.32;2.58;;;;;;;32.56;26.50;100279.41;5567518;31;34010;-69
2023/06/15 10:27:23;;;;;;;8.02;2.62;;;;;;;34.37;24.95;100282.44;5565631;32;33960;-70
2023/06/15 10:30:39;;;;;;;4.28;2.20;;;;;;;32.64;25.76;100267.66;5569188;31;34567;-69
2023/06/15 10:34:10;;;;;;;4.47;2.40;;;;;;;31.10;28.84;100271.91;5566149;32;34596;-69
2023/06/15 10:37:48;;;;;;;6.43;2.60;;;;;;;30.44;28.66;100270.44;5573358;31;33593;-70
2023/06/15 10:40:53;;;;;;;5.75;2.80;;;;;;;29.03;31.26;100267.91;5586044;31;33317;-70
2023/06/15 10:44:02;;;;;;;3.85;2.50;;;;;;;27.40;32.55;100267.69;5583203;31;34742;-69
2023/06/15 10:47:14;;;;;;;4.90;2.60;;;;;;;26.64;34.41;100270.69;5575078;31;33895;-69
2023/06/15 10:50:18;;;;;;;7.72;2.78;;;;;;;28.29;31.77;100256.41;5583579;31;33958;-69
2023/06/15 10:53:26;;;;;;;7.60;2.70;;;;;;;29.00;32.33;100265.78;5587802;31;34187;-69
2023/06/15 10:56:32;;;;;;;6.03;2.60;;;;;;;29.47;31.53;100262.97;5585318;31;33667;-69
2023/06/15 10:59:49;;;;;;;5.37;2.60;;;;;;;28.55;33.10;100258.88;5585150;31;34405;-69
2023/06/15 11:02:59;;;;;;;4.70;2.40;;;;;;;29.19;29.91;100255.69;5584855;31;33729;-69
2023/06/15 11:06:04;;;;;;;5.25;2.70;;;;;;;28.64;31.49;100251.69;5584277;31;34015;-69
2023/06/15 11:09:13;;;;;;;5.25;2.72;;;;;;;28.65;33.62;100251.41;5585762;31;33896;-69
2023/06/15 11:12:36;;;;;;;6.82;2.70;;;;;;;29.46;32.17;100253.13;5585180;31;33798;-68
2023/06/15 11:15:41;;;;;;;4.28;2.90;;;;;;;29.71;30.75;100251.94;5584684;31;34143;-68
2023/06/15 11:19:10;;;;;;;3.65;2.37;;;;;;;29.48;31.86;100250.13;5584881;31;34541;-68
2023/06/15 11:22:25;;;;;;;4.37;2.40;;;;;;;30.73;29.96;100256.50;5585232;31;34887;-68
2023/06/15 11:25:29;;;;;;;3.45;2.60;;;;;;;30.86;28.27;100264.69;5570538;31;34271;-69
2023/06/15 11:28:34;;;;;;;7.93;2.60;;;;;;;27.75;31.10;100258.47;5566581;31;33821;-70
2023/06/15 11:31:41;;;;;;;4.60;2.37;;;;;;;28.87;30.29;100259.09;5578720;31;33900;-69
2023/06/15 11:34:45;;;;;;;5.00;2.30;;;;;;;27.92;30.07;100246.09;5585925;31;33811;-69
2023/06/15 11:37:48;;;;;;;4.35;2.65;;;;;;;30.04;29.00;100250.87;5583316;31;33960;-70
2023/06/15 11:41:06;;;;;;;4.80;2.60;;;;;;;31.71;25.48;100253.00;5584423;31;33770;-71
2023/06/15 11:44:09;;;;;;;4.35;2.17;;;;;;;30.61;26.47;100246.84;5586439;31;34551;-69
2023/06/15 11:47:13;;;;;;;4.03;2.40;;;;;;;32.65;24.67;100249.25;5587418;31;34485;-69
2023/06/15 11:50:20;;;;;;;5.93;2.80;;;;;;;32.27;23.57;100246.94;5584655;31;34549;-68
2023/06/15 11:53:23;;;;;;;4.95;2.33;;;;;;;31.54;26.28;100244.59;5587753;31;33866;-68
2023/06/15 11:56:27;;;;;;;7.50;2.70;;;;;;;29.77;28.99;100245.28;5587561;31;33758;-70
2023/06/15 11:59:35;;;;;;;4.70;2.80;;;;;;;30.94;27.99;100238.50;5576410;31;34532;-70
2023/06/15 12:02:40;;;;;;;7.87;2.20;;;;;;;33.99;26.55;100228.03;5587302;31;33905;-67
2023/06/15 12:05:55;;;;;;;4.47;2.60;;;;;;;32.82;26.73;100227.34;5573992;31;33970;-70
2023/06/15 12:08:59;;;;;;;4.25;2.55;;;;;;;34.63;23.57;100235.47;5573795;31;33584;-70
2023/06/15 12:12:03;;;;;;;5.82;2.53;;;;;;;31.78;26.01;100225.12;5587445;31;33725;-70
2023/06/15 12:15:07;;;;;;;5.95;2.30;;;;;;;32.68;26.08;100224.69;5573857;31;33731;-70
2023/06/15 12:18:16;;;;;;;6.40;2.60;;;;;;;33.43;23.76;100220.00;5587423;31;34699;-70
2023/06/15 12:21:19;;;;;;;5.28;2.58;;;;;;;34.57;23.30;100220.28;5587390;31;33830;-71
2023/06/15 12:24:26;;;;;;;3.70;2.50;;;;;;;33.98;24.78;100200.88;5583648;31;35211;-70
2023/06/15 12:27:31;;;;;;;5.50;2.20;;;;;;;35.84;22.72;100213.41;5577420;31;33888;-69
2023/06/15 12:30:36;;;;;;;3.05;2.30;;;;;;;35.83;21.94;100217.31;5587238;31;33724;-69
2023/06/15 12:33:42;;;;;;;5.40;2.60;;;;;;;32.85;24.71;100206.63;5568566;31;33771;-68
2023/06/15 12:36:48;;;;;;;3.95;2.15;;;;;;;31.03;27.18;100199.16;5568020;32;33669;-69
2023/06/15 12:39:51;;;;;;;3.55;2.40;;;;;;;33.85;23.48;100199.09;5567707;32;33750;-68
2023/06/15 12:42:59;;;;;;;6.18;2.80;;;;;;;33.45;24.34;100199.25;5567439;32;33825;-69
2023/06/15 12:46:03;;;;;;;5.03;2.40;;;;;;;31.46;25.56;100196.00;5581517;31;33772;-69
2023/06/15 12:49:10;;;;;;;3.83;2.42;;;;;;;29.29;28.20;100185.28;5586824;31;34031;-70
2023/06/15 12:52:16;;;;;;;6.12;2.75;;;;;;;29.43;30.05;100188.16;5575316;31;34519;-69
2023/06/15 12:55:21;;;;;;;3.58;2.35;;;;;;;29.15;29.56;100187.16;5587313;31;32488;-70
2023/06/15 12:58:24;;;;;;;7.97;2.83;;;;;;;29.00;28.58;100176.44;5586052;31;33862;-69
2023/06/15 13:01:27;;;;;;;6.37;2.83;;;;;;;29.70;28.71;100185.50;5584297;31;34251;-66
2023/06/15 13:04:31;;;;;;;3.17;2.53;;;;;;;32.40;25.07;100182.06;5585920;31;33688;-69
2023/06/15 13:07:38;;;;;;;5.87;2.50;;;;;;;35.22;23.11;100181.16;5586960;31;34263;-69
2023/06/15 13:10:42;;;;;;;3.03;2.20;;;;;;;37.58;19.54;100187.47;5575576;31;34532;-69
2023/06/15 13:13:48;;;;;;;6.10;2.40;;;;;;;37.50;19.69;100176.53;5569577;31;34395;-68
2023/06/15 13:16:52;;;;;;;6.85;2.50;;;;;;;35.08;21.16;100170.38;5585509;31;34613;-68
2023/06/15 13:19:57;;;;;;;3.95;2.20;;;;;;;34.07;22.34;100170.56;5585803;31;34032;-67
2023/06/15 13:23:01;;;;;;;9.18;2.80;;;;;;;31.93;23.84;100162.47;5586583;31;33817;-68
2023/06/15 13:26:06;;;;;;;3.30;2.30;;;;;;;33.44;23.36;100159.16;5586756;31;33551;-70
2023/06/15 13:29:12;;;;;;;2.60;2.00;;;;;;;32.92;22.56;100161.03;5586173;31;34086;-68
2023/06/15 13:32:18;;;;;;;6.53;2.28;;;;;;;34.97;20.67;100163.63;5586658;31;34275;-69
2023/06/15 13:35:24;;;;;;;4.20;2.37;;;;;;;37.05;18.96;100155.44;5568033;31;34438;-70
2023/06/15 13:38:29;;;;;;;12.18;2.50;;;;;;;33.79;21.36;100151.66;5585119;31;33774;-68
2023/06/15 13:41:32;;;;;;;7.22;2.15;;;;;;;32.25;22.44;100146.78;5603712;31;34469;-69
2023/06/15 13:44:36;;;;;;;9.82;2.35;;;;;;;31.29;23.32;100151.97;5606143;31;33550;-68
2023/06/15 13:47:41;;;;;;;7.60;2.60;;;;;;;33.05;22.38;100148.31;5606063;31;33792;-68
2023/06/15 13:50:49;;;;;;;4.72;2.30;;;;;;;32.01;23.17;100130.69;5605232;31;34747;-69
2023/06/15 13:53:53;;;;;;;9.15;3.03;;;;;;;33.97;21.08;100142.25;5605616;31;33620;-68
2023/06/15 13:56:58;;;;;;;11.12;2.53;;;;;;;33.94;22.17;100145.63;5601163;31;33891;-68
2023/06/15 14:00:04;;;;;;;17.08;2.70;;;;;;;32.69;23.12;100137.59;5577137;31;33929;-68
2023/06/15 14:03:15;;;;;;;3.15;2.28;;;;;;;32.11;23.49;100135.13;5568221;31;33928;-67
2023/06/15 14:06:21;;;;;;;14.00;2.30;;;;;;;30.15;25.04;100133.88;5572807;31;34216;-67
2023/06/15 14:09:26;;;;;;;11.32;2.72;;;;;;;28.52;27.45;100127.34;5570060;31;33864;-68
2023/06/15 14:12:33;;;;;;;3.60;2.50;;;;;;;28.53;27.90;100128.97;5572418;31;33824;-68
2023/06/15 14:15:39;;;;;;;3.58;2.50;;;;;;;28.15;27.62;100124.53;5578430;31;34857;-67
2023/06/15 14:18:50;;;;;;;9.73;2.83;;;;;;;28.78;26.68;100122.41;5572142;31;34638;-68
2023/06/15 14:21:59;;;;;;;3.67;2.55;;;;;;;29.35;25.94;100129.50;5576152;31;35157;-68